sensor_id;sensor_type;location;lat;lon;timestamp;temperature;humidity
30678;DHT22;17437;47.188;8.896;2022-07-29T00:00:14;19.10;99.90
30678;DHT22;17437;47.188;8.896;2022-07-29T00:02:46;19.10;99.90
30678;DHT22;17437;47.188;8.896;2022-07-29T00:05:17;19.10;99.90
30678;DHT22;17437;47.188;8.896;2022-07-29T00:07:49;19.10;99.90
30678;DHT22;17437;47.188;8.896;2022-07-29T00:10:21;19.10;99.90
30678;DHT22;17437;47.188;8.896;2022-07-29T00:12:52;19.10;99.90
30678;DHT22;17437;47.188;8.896;2022-07-29T00:15:25;19.10;99.90
30678;DHT22;17437;47.188;8.896;2022-07-29T00:17:56;19.10;99.90
30678;DHT22;17437;47.188;8.896;2022-07-29T00:20:28;19.10;99.90
30678;DHT22;17437;47.188;8.896;2022-07-29T00:22:59;19.10;99.90
30678;DHT22;17437;47.188;8.896;2022-07-29T00:25:31;19.10;99.90
30678;DHT22;17437;47.188;8.896;2022-07-29T00:28:03;19.10;99.90
30678;DHT22;17437;47.188;8.896;2022-07-29T00:30:34;19.10;99.90
30678;DHT22;17437;47.188;8.896;2022-07-29T00:33:06;19.10;99.90
30678;DHT22;17437;47.188;8.896;2022-07-29T00:35:38;19.10;99.90
30678;DHT22;17437;47.188;8.896;2022-07-29T00:38:18;19.10;99.90
30678;DHT22;17437;47.188;8.896;2022-07-29T00:40:50;19.20;99.90
30678;DHT22;17437;47.188;8.896;2022-07-29T00:43:21;19.20;99.90
30678;DHT22;17437;47.188;8.896;2022-07-29T00:45:53;19.20;99.90
30678;DHT22;17437;47.188;8.896;2022-07-29T00:48:24;19.10;99.90
30678;DHT22;17437;47.188;8.896;2022-07-29T00:50:56;19.10;99.90
30678;DHT22;17437;47.188;8.896;2022-07-29T00:53:28;19.00;99.90
30678;DHT22;17437;47.188;8.896;2022-07-29T00:56:00;19.00;99.90
30678;DHT22;17437;47.188;8.896;2022-07-29T00:58:32;18.90;99.90
30678;DHT22;17437;47.188;8.896;2022-07-29T01:01:03;18.90;99.90
30678;DHT22;17437;47.188;8.896;2022-07-29T01:03:35;18.80;99.90
30678;DHT22;17437;47.188;8.896;2022-07-29T01:06:06;18.80;99.90
30678;DHT22;17437;47.188;8.896;2022-07-29T01:08:38;18.80;99.90
30678;DHT22;17437;47.188;8.896;2022-07-29T01:11:10;18.90;99.90
30678;DHT22;17437;47.188;8.896;2022-07-29T01:13:43;18.90;99.90
30678;DHT22;17437;47.188;8.896;2022-07-29T01:16:17;18.90;99.90
30678;DHT22;17437;47.188;8.896;2022-07-29T01:18:51;18.90;99.90
30678;DHT22;17437;47.188;8.896;2022-07-29T01:21:43;18.90;99.90
30678;DHT22;17437;47.188;8.896;2022-07-29T01:24:18;18.90;99.90
30678;DHT22;17437;47.188;8.896;2022-07-29T01:26:51;18.80;99.90
30678;DHT22;17437;47.188;8.896;2022-07-29T01:29:26;18.80;99.90
30678;DHT22;17437;47.188;8.896;2022-07-29T01:32:03;18.80;99.90
30678;DHT22;17437;47.188;8.896;2022-07-29T01:34:41;18.80;99.90
30678;DHT22;17437;47.188;8.896;2022-07-29T01:37:15;18.80;99.90
30678;DHT22;17437;47.188;8.896;2022-07-29T01:39:49;18.70;99.90
30678;DHT22;17437;47.188;8.896;2022-07-29T01:42:26;18.70;99.90
30678;DHT22;17437;47.188;8.896;2022-07-29T01:44:59;18.80;99.90
30678;DHT22;17437;47.188;8.896;2022-07-29T01:47:37;18.70;99.90
30678;DHT22;17437;47.188;8.896;2022-07-29T01:50:10;18.70;99.90
30678;DHT22;17437;47.188;8.896;2022-07-29T01:52:46;18.70;99.90
30678;DHT22;17437;47.188;8.896;2022-07-29T01:55:18;18.70;99.90
30678;DHT22;17437;47.188;8.896;2022-07-29T01:57:51;18.70;99.90
30678;DHT22;17437;47.188;8.896;2022-07-29T02:00:23;18.70;99.90
30678;DHT22;17437;47.188;8.896;2022-07-29T02:02:57;18.70;99.90
30678;DHT22;17437;47.188;8.896;2022-07-29T02:05:31;18.70;99.90
30678;DHT22;17437;47.188;8.896;2022-07-29T02:08:04;18.70;99.90
30678;DHT22;17437;47.188;8.896;2022-07-29T02:10:38;18.80;99.90
30678;DHT22;17437;47.188;8.896;2022-07-29T02:13:12;18.80;99.90
30678;DHT22;17437;47.188;8.896;2022-07-29T02:15:45;18.80;99.90
30678;DHT22;17437;47.188;8.896;2022-07-29T02:18:18;18.80;99.90
30678;DHT22;17437;47.188;8.896;2022-07-29T02:20:53;18.80;99.90
30678;DHT22;17437;47.188;8.896;2022-07-29T02:23:26;18.70;99.90
30678;DHT22;17437;47.188;8.896;2022-07-29T02:25:58;18.70;99.90
30678;DHT22;17437;47.188;8.896;2022-07-29T02:28:31;18.80;99.90
30678;DHT22;17437;47.188;8.896;2022-07-29T02:31:04;18.90;99.90
30678;DHT22;17437;47.188;8.896;2022-07-29T02:33:38;18.90;99.90
30678;DHT22;17437;47.188;8.896;2022-07-29T02:36:11;18.80;99.90
30678;DHT22;17437;47.188;8.896;2022-07-29T02:38:44;18.80;99.90
30678;DHT22;17437;47.188;8.896;2022-07-29T02:41:26;18.70;99.90
30678;DHT22;17437;47.188;8.896;2022-07-29T02:44:03;18.70;99.90
30678;DHT22;17437;47.188;8.896;2022-07-29T02:46:36;18.60;99.90
30678;DHT22;17437;47.188;8.896;2022-07-29T02:49:12;18.60;99.90
30678;DHT22;17437;47.188;8.896;2022-07-29T02:51:45;18.60;99.90
30678;DHT22;17437;47.188;8.896;2022-07-29T02:54:24;18.50;99.90
30678;DHT22;17437;47.188;8.896;2022-07-29T02:56:57;18.50;99.90
30678;DHT22;17437;47.188;8.896;2022-07-29T02:59:31;18.50;99.90
30678;DHT22;17437;47.188;8.896;2022-07-29T03:02:05;18.40;99.90
30678;DHT22;17437;47.188;8.896;2022-07-29T03:04:40;18.40;99.90
30678;DHT22;17437;47.188;8.896;2022-07-29T03:07:15;18.40;99.90
30678;DHT22;17437;47.188;8.896;2022-07-29T03:09:47;18.40;99.90
30678;DHT22;17437;47.188;8.896;2022-07-29T03:12:21;18.40;99.90
30678;DHT22;17437;47.188;8.896;2022-07-29T03:14:53;18.40;99.90
30678;DHT22;17437;47.188;8.896;2022-07-29T03:17:25;18.40;99.90
30678;DHT22;17437;47.188;8.896;2022-07-29T03:19:58;18.40;99.90
30678;DHT22;17437;47.188;8.896;2022-07-29T03:22:30;18.40;99.90
30678;DHT22;17437;47.188;8.896;2022-07-29T03:25:09;18.40;99.90
30678;DHT22;17437;47.188;8.896;2022-07-29T03:27:41;18.50;99.90
30678;DHT22;17437;47.188;8.896;2022-07-29T03:30:14;18.50;99.90
30678;DHT22;17437;47.188;8.896;2022-07-29T03:32:48;18.60;99.90
30678;DHT22;17437;47.188;8.896;2022-07-29T03:35:21;18.70;99.90
30678;DHT22;17437;47.188;8.896;2022-07-29T03:37:53;18.70;99.90
30678;DHT22;17437;47.188;8.896;2022-07-29T03:40:27;18.70;99.90
30678;DHT22;17437;47.188;8.896;2022-07-29T03:43:00;18.70;99.90
30678;DHT22;17437;47.188;8.896;2022-07-29T03:45:34;18.70;99.90
30678;DHT22;17437;47.188;8.896;2022-07-29T03:48:08;18.70;99.90
30678;DHT22;17437;47.188;8.896;2022-07-29T03:50:41;18.70;99.90
30678;DHT22;17437;47.188;8.896;2022-07-29T03:53:13;18.70;99.90
30678;DHT22;17437;47.188;8.896;2022-07-29T03:55:46;18.70;99.90
30678;DHT22;17437;47.188;8.896;2022-07-29T03:58:19;18.70;99.90
30678;DHT22;17437;47.188;8.896;2022-07-29T04:00:51;18.70;99.90
30678;DHT22;17437;47.188;8.896;2022-07-29T04:03:24;18.70;99.90
30678;DHT22;17437;47.188;8.896;2022-07-29T04:06:00;18.70;99.90
30678;DHT22;17437;47.188;8.896;2022-07-29T04:08:33;18.70;99.90
30678;DHT22;17437;47.188;8.896;2022-07-29T04:11:05;18.70;99.90
30678;DHT22;17437;47.188;8.896;2022-07-29T04:13:36;18.70;99.90
30678;DHT22;17437;47.188;8.896;2022-07-29T04:16:07;18.70;99.90
30678;DHT22;17437;47.188;8.896;2022-07-29T04:18:39;18.70;99.90
30678;DHT22;17437;47.188;8.896;2022-07-29T04:21:11;18.70;99.90
30678;DHT22;17437;47.188;8.896;2022-07-29T04:23:42;18.60;99.90
30678;DHT22;17437;47.188;8.896;2022-07-29T04:26:17;18.70;99.90
30678;DHT22;17437;47.188;8.896;2022-07-29T04:28:48;18.70;99.90
30678;DHT22;17437;47.188;8.896;2022-07-29T04:31:19;18.80;99.90
30678;DHT22;17437;47.188;8.896;2022-07-29T04:33:52;18.80;99.90
30678;DHT22;17437;47.188;8.896;2022-07-29T04:36:24;18.80;99.90
30678;DHT22;17437;47.188;8.896;2022-07-29T04:38:57;18.80;99.90
30678;DHT22;17437;47.188;8.896;2022-07-29T04:41:29;18.80;99.90
30678;DHT22;17437;47.188;8.896;2022-07-29T04:44:03;18.80;99.90
30678;DHT22;17437;47.188;8.896;2022-07-29T04:46:37;18.70;99.90
30678;DHT22;17437;47.188;8.896;2022-07-29T04:49:08;18.70;99.90
30678;DHT22;17437;47.188;8.896;2022-07-29T04:51:40;18.70;99.90
30678;DHT22;17437;47.188;8.896;2022-07-29T04:54:11;18.70;99.90
30678;DHT22;17437;47.188;8.896;2022-07-29T04:56:43;18.70;99.90
30678;DHT22;17437;47.188;8.896;2022-07-29T04:59:17;18.70;99.90
30678;DHT22;17437;47.188;8.896;2022-07-29T05:01:48;18.60;99.90
30678;DHT22;17437;47.188;8.896;2022-07-29T05:04:20;18.60;99.90
30678;DHT22;17437;47.188;8.896;2022-07-29T05:06:51;18.60;99.90
30678;DHT22;17437;47.188;8.896;2022-07-29T05:09:22;18.60;99.90
30678;DHT22;17437;47.188;8.896;2022-07-29T05:11:54;18.60;99.90
30678;DHT22;17437;47.188;8.896;2022-07-29T05:14:25;18.50;99.90
30678;DHT22;17437;47.188;8.896;2022-07-29T05:16:57;18.50;99.90
30678;DHT22;17437;47.188;8.896;2022-07-29T05:19:28;18.50;99.90
30678;DHT22;17437;47.188;8.896;2022-07-29T05:22:00;18.50;99.90
30678;DHT22;17437;47.188;8.896;2022-07-29T05:24:31;18.40;99.90
30678;DHT22;17437;47.188;8.896;2022-07-29T05:27:03;18.40;99.90
30678;DHT22;17437;47.188;8.896;2022-07-29T05:29:34;18.30;99.90
30678;DHT22;17437;47.188;8.896;2022-07-29T05:32:07;18.30;99.90
30678;DHT22;17437;47.188;8.896;2022-07-29T05:34:39;18.30;99.90
30678;DHT22;17437;47.188;8.896;2022-07-29T05:37:12;18.30;99.90
30678;DHT22;17437;47.188;8.896;2022-07-29T05:39:45;18.30;99.90
30678;DHT22;17437;47.188;8.896;2022-07-29T05:42:18;18.40;99.90
30678;DHT22;17437;47.188;8.896;2022-07-29T05:44:50;18.40;99.90
30678;DHT22;17437;47.188;8.896;2022-07-29T05:47:23;18.50;99.90
30678;DHT22;17437;47.188;8.896;2022-07-29T05:49:55;18.60;99.90
30678;DHT22;17437;47.188;8.896;2022-07-29T05:52:27;18.70;99.90
30678;DHT22;17437;47.188;8.896;2022-07-29T05:54:58;18.90;99.90
30678;DHT22;17437;47.188;8.896;2022-07-29T05:57:31;19.00;99.90
30678;DHT22;17437;47.188;8.896;2022-07-29T06:00:05;19.20;99.90
30678;DHT22;17437;47.188;8.896;2022-07-29T06:02:37;19.40;99.90
30678;DHT22;17437;47.188;8.896;2022-07-29T06:05:09;19.50;99.90
30678;DHT22;17437;47.188;8.896;2022-07-29T06:07:42;19.60;99.90
30678;DHT22;17437;47.188;8.896;2022-07-29T06:10:15;19.80;99.90
30678;DHT22;17437;47.188;8.896;2022-07-29T06:12:47;20.10;99.90
30678;DHT22;17437;47.188;8.896;2022-07-29T06:15:19;20.30;99.90
30678;DHT22;17437;47.188;8.896;2022-07-29T06:17:50;20.40;99.90
30678;DHT22;17437;47.188;8.896;2022-07-29T06:20:24;20.50;99.90
30678;DHT22;17437;47.188;8.896;2022-07-29T06:22:59;20.60;99.90
30678;DHT22;17437;47.188;8.896;2022-07-29T06:25:33;20.70;99.90
30678;DHT22;17437;47.188;8.896;2022-07-29T06:28:10;20.90;99.90
30678;DHT22;17437;47.188;8.896;2022-07-29T06:30:42;21.10;99.90
30678;DHT22;17437;47.188;8.896;2022-07-29T06:33:17;21.30;99.90
30678;DHT22;17437;47.188;8.896;2022-07-29T06:35:49;21.40;99.90
30678;DHT22;17437;47.188;8.896;2022-07-29T06:38:22;21.50;99.90
30678;DHT22;17437;47.188;8.896;2022-07-29T06:40:55;21.40;99.90
30678;DHT22;17437;47.188;8.896;2022-07-29T06:43:34;21.30;99.90
30678;DHT22;17437;47.188;8.896;2022-07-29T06:46:11;21.20;99.90
30678;DHT22;17437;47.188;8.896;2022-07-29T06:48:44;21.10;99.90
30678;DHT22;17437;47.188;8.896;2022-07-29T06:51:16;21.10;99.90
30678;DHT22;17437;47.188;8.896;2022-07-29T06:53:49;20.90;99.90
30678;DHT22;17437;47.188;8.896;2022-07-29T06:56:23;20.80;99.90
30678;DHT22;17437;47.188;8.896;2022-07-29T06:58:54;20.60;99.90
30678;DHT22;17437;47.188;8.896;2022-07-29T07:01:26;20.40;99.90
30678;DHT22;17437;47.188;8.896;2022-07-29T07:03:57;20.20;99.90
30678;DHT22;17437;47.188;8.896;2022-07-29T07:06:28;20.10;99.90
30678;DHT22;17437;47.188;8.896;2022-07-29T07:09:00;20.10;99.90
30678;DHT22;17437;47.188;8.896;2022-07-29T07:11:31;20.00;99.90
30678;DHT22;17437;47.188;8.896;2022-07-29T07:14:03;20.00;99.90
30678;DHT22;17437;47.188;8.896;2022-07-29T07:16:34;20.10;99.90
30678;DHT22;17437;47.188;8.896;2022-07-29T07:19:06;20.10;99.90
30678;DHT22;17437;47.188;8.896;2022-07-29T07:21:37;20.30;99.90
30678;DHT22;17437;47.188;8.896;2022-07-29T07:24:09;20.40;99.90
30678;DHT22;17437;47.188;8.896;2022-07-29T07:26:40;20.50;99.90
30678;DHT22;17437;47.188;8.896;2022-07-29T07:29:12;20.60;99.90
30678;DHT22;17437;47.188;8.896;2022-07-29T07:31:44;20.70;99.90
30678;DHT22;17437;47.188;8.896;2022-07-29T07:34:15;20.80;99.90
30678;DHT22;17437;47.188;8.896;2022-07-29T07:36:48;20.90;99.90
30678;DHT22;17437;47.188;8.896;2022-07-29T07:39:20;21.00;99.90
30678;DHT22;17437;47.188;8.896;2022-07-29T07:41:51;21.10;99.90
30678;DHT22;17437;47.188;8.896;2022-07-29T07:44:23;21.00;99.90
30678;DHT22;17437;47.188;8.896;2022-07-29T07:46:55;21.00;99.90
30678;DHT22;17437;47.188;8.896;2022-07-29T07:49:28;20.80;99.90
30678;DHT22;17437;47.188;8.896;2022-07-29T07:52:00;20.80;99.90
30678;DHT22;17437;47.188;8.896;2022-07-29T07:54:31;20.70;99.90
30678;DHT22;17437;47.188;8.896;2022-07-29T07:57:03;20.80;99.90
30678;DHT22;17437;47.188;8.896;2022-07-29T07:59:34;20.90;99.90
30678;DHT22;17437;47.188;8.896;2022-07-29T08:02:06;20.90;99.90
30678;DHT22;17437;47.188;8.896;2022-07-29T08:04:43;20.80;99.90
30678;DHT22;17437;47.188;8.896;2022-07-29T08:07:18;20.80;99.90
30678;DHT22;17437;47.188;8.896;2022-07-29T08:09:51;21.10;99.90
30678;DHT22;17437;47.188;8.896;2022-07-29T08:12:23;21.30;99.90
30678;DHT22;17437;47.188;8.896;2022-07-29T08:14:54;21.40;99.90
30678;DHT22;17437;47.188;8.896;2022-07-29T08:17:26;21.20;99.90
30678;DHT22;17437;47.188;8.896;2022-07-29T08:19:58;21.10;99.90
30678;DHT22;17437;47.188;8.896;2022-07-29T08:22:29;21.00;99.90
30678;DHT22;17437;47.188;8.896;2022-07-29T08:25:01;21.10;99.90
30678;DHT22;17437;47.188;8.896;2022-07-29T08:27:35;21.00;99.90
30678;DHT22;17437;47.188;8.896;2022-07-29T08:30:09;21.00;99.90
30678;DHT22;17437;47.188;8.896;2022-07-29T08:32:42;21.00;99.90
30678;DHT22;17437;47.188;8.896;2022-07-29T08:35:15;20.90;99.90
30678;DHT22;17437;47.188;8.896;2022-07-29T08:37:46;20.90;99.90
30678;DHT22;17437;47.188;8.896;2022-07-29T08:40:18;20.80;99.90
30678;DHT22;17437;47.188;8.896;2022-07-29T08:42:52;20.70;99.90
30678;DHT22;17437;47.188;8.896;2022-07-29T08:45:24;20.60;99.90
30678;DHT22;17437;47.188;8.896;2022-07-29T08:47:56;20.50;99.90
30678;DHT22;17437;47.188;8.896;2022-07-29T08:50:28;20.40;99.90
30678;DHT22;17437;47.188;8.896;2022-07-29T08:52:59;20.30;99.90
30678;DHT22;17437;47.188;8.896;2022-07-29T08:55:31;20.40;99.90
30678;DHT22;17437;47.188;8.896;2022-07-29T08:58:02;20.50;99.90
30678;DHT22;17437;47.188;8.896;2022-07-29T09:00:41;20.70;99.90
30678;DHT22;17437;47.188;8.896;2022-07-29T09:03:15;20.80;99.90
30678;DHT22;17437;47.188;8.896;2022-07-29T09:05:48;21.00;99.90
30678;DHT22;17437;47.188;8.896;2022-07-29T09:08:20;21.00;99.90
30678;DHT22;17437;47.188;8.896;2022-07-29T09:10:52;21.00;99.90
30678;DHT22;17437;47.188;8.896;2022-07-29T09:13:24;21.00;99.90
30678;DHT22;17437;47.188;8.896;2022-07-29T09:15:55;21.00;99.90
30678;DHT22;17437;47.188;8.896;2022-07-29T09:18:41;21.00;99.90
30678;DHT22;17437;47.188;8.896;2022-07-29T09:21:14;21.00;99.90
30678;DHT22;17437;47.188;8.896;2022-07-29T09:24:09;21.00;99.90
30678;DHT22;17437;47.188;8.896;2022-07-29T09:26:42;21.00;99.90
30678;DHT22;17437;47.188;8.896;2022-07-29T09:29:15;20.90;99.90
30678;DHT22;17437;47.188;8.896;2022-07-29T09:31:50;20.90;99.90
30678;DHT22;17437;47.188;8.896;2022-07-29T09:34:25;21.00;99.90
30678;DHT22;17437;47.188;8.896;2022-07-29T09:36:58;21.00;99.90
30678;DHT22;17437;47.188;8.896;2022-07-29T09:39:31;21.10;99.90
30678;DHT22;17437;47.188;8.896;2022-07-29T09:42:05;21.10;99.90
30678;DHT22;17437;47.188;8.896;2022-07-29T09:44:44;21.40;99.90
30678;DHT22;17437;47.188;8.896;2022-07-29T09:47:17;21.80;99.90
30678;DHT22;17437;47.188;8.896;2022-07-29T09:49:53;22.00;99.90
30678;DHT22;17437;47.188;8.896;2022-07-29T09:52:27;22.60;99.90
30678;DHT22;17437;47.188;8.896;2022-07-29T09:55:07;23.00;99.90
30678;DHT22;17437;47.188;8.896;2022-07-29T09:57:41;23.20;99.90
30678;DHT22;17437;47.188;8.896;2022-07-29T10:00:15;23.20;99.90
30678;DHT22;17437;47.188;8.896;2022-07-29T10:02:48;23.20;99.90
30678;DHT22;17437;47.188;8.896;2022-07-29T10:05:22;23.30;99.90
30678;DHT22;17437;47.188;8.896;2022-07-29T10:07:56;23.40;99.90
30678;DHT22;17437;47.188;8.896;2022-07-29T10:10:30;23.40;99.90
30678;DHT22;17437;47.188;8.896;2022-07-29T10:13:05;23.50;99.90
30678;DHT22;17437;47.188;8.896;2022-07-29T10:15:41;23.70;99.90
30678;DHT22;17437;47.188;8.896;2022-07-29T10:18:15;23.90;99.90
30678;DHT22;17437;47.188;8.896;2022-07-29T10:20:49;24.10;99.90
30678;DHT22;17437;47.188;8.896;2022-07-29T10:23:21;24.30;99.90
30678;DHT22;17437;47.188;8.896;2022-07-29T10:25:52;24.40;99.90
30678;DHT22;17437;47.188;8.896;2022-07-29T10:28:24;24.50;99.90
30678;DHT22;17437;47.188;8.896;2022-07-29T10:31:00;24.80;99.90
30678;DHT22;17437;47.188;8.896;2022-07-29T10:33:51;24.90;99.90
30678;DHT22;17437;47.188;8.896;2022-07-29T10:36:31;25.00;99.90
30678;DHT22;17437;47.188;8.896;2022-07-29T10:39:05;24.90;99.90
30678;DHT22;17437;47.188;8.896;2022-07-29T10:42:11;25.10;99.90
30678;DHT22;17437;47.188;8.896;2022-07-29T10:44:45;25.20;99.90
30678;DHT22;17437;47.188;8.896;2022-07-29T10:47:25;25.40;99.90
30678;DHT22;17437;47.188;8.896;2022-07-29T10:49:58;25.80;99.90
30678;DHT22;17437;47.188;8.896;2022-07-29T10:52:54;26.20;99.90
30678;DHT22;17437;47.188;8.896;2022-07-29T10:55:35;26.00;99.90
30678;DHT22;17437;47.188;8.896;2022-07-29T10:58:15;26.20;99.90
30678;DHT22;17437;47.188;8.896;2022-07-29T11:00:49;26.70;99.90
30678;DHT22;17437;47.188;8.896;2022-07-29T11:03:45;27.20;99.90
30678;DHT22;17437;47.188;8.896;2022-07-29T11:06:19;27.00;99.90
30678;DHT22;17437;47.188;8.896;2022-07-29T11:09:16;27.10;99.90
30678;DHT22;17437;47.188;8.896;2022-07-29T11:11:50;27.50;99.90
30678;DHT22;17437;47.188;8.896;2022-07-29T11:14:57;27.80;99.90
30678;DHT22;17437;47.188;8.896;2022-07-29T11:17:30;28.20;99.90
30678;DHT22;17437;47.188;8.896;2022-07-29T11:23:24;28.50;99.90
30678;DHT22;17437;47.188;8.896;2022-07-29T11:26:17;28.80;99.90
30678;DHT22;17437;47.188;8.896;2022-07-29T11:29:02;28.60;99.90
30678;DHT22;17437;47.188;8.896;2022-07-29T11:31:36;28.50;99.90
30678;DHT22;17437;47.188;8.896;2022-07-29T11:35:11;28.40;99.90
30678;DHT22;17437;47.188;8.896;2022-07-29T11:37:45;28.30;99.90
30678;DHT22;17437;47.188;8.896;2022-07-29T11:40:18;27.90;99.90
30678;DHT22;17437;47.188;8.896;2022-07-29T11:42:52;27.60;99.90
30678;DHT22;17437;47.188;8.896;2022-07-29T11:45:44;27.40;99.90
30678;DHT22;17437;47.188;8.896;2022-07-29T11:48:04;27.20;99.90
30678;DHT22;17437;47.188;8.896;2022-07-29T11:50:38;27.00;99.90
30678;DHT22;17437;47.188;8.896;2022-07-29T11:53:12;26.80;99.90
30678;DHT22;17437;47.188;8.896;2022-07-29T11:55:45;26.70;99.90
30678;DHT22;17437;47.188;8.896;2022-07-29T11:58:21;26.60;99.90
30678;DHT22;17437;47.188;8.896;2022-07-29T12:00:55;26.50;99.90
30678;DHT22;17437;47.188;8.896;2022-07-29T12:03:31;26.40;99.90
30678;DHT22;17437;47.188;8.896;2022-07-29T12:06:11;26.40;99.90
30678;DHT22;17437;47.188;8.896;2022-07-29T12:08:45;26.40;99.90
30678;DHT22;17437;47.188;8.896;2022-07-29T12:11:18;26.40;99.90
30678;DHT22;17437;47.188;8.896;2022-07-29T12:13:52;26.30;99.90
30678;DHT22;17437;47.188;8.896;2022-07-29T12:16:34;26.40;99.90
30678;DHT22;17437;47.188;8.896;2022-07-29T12:19:00;26.50;99.90
30678;DHT22;17437;47.188;8.896;2022-07-29T12:21:45;26.50;99.90
30678;DHT22;17437;47.188;8.896;2022-07-29T12:24:18;26.40;99.90
30678;DHT22;17437;47.188;8.896;2022-07-29T12:26:54;26.40;99.90
30678;DHT22;17437;47.188;8.896;2022-07-29T12:29:27;26.40;99.90
30678;DHT22;17437;47.188;8.896;2022-07-29T12:32:00;26.40;99.90
30678;DHT22;17437;47.188;8.896;2022-07-29T12:34:32;26.40;99.90
30678;DHT22;17437;47.188;8.896;2022-07-29T12:37:06;26.40;99.90
30678;DHT22;17437;47.188;8.896;2022-07-29T12:39:39;26.20;99.90
30678;DHT22;17437;47.188;8.896;2022-07-29T12:42:15;26.10;99.90
30678;DHT22;17437;47.188;8.896;2022-07-29T12:44:49;26.00;99.90
30678;DHT22;17437;47.188;8.896;2022-07-29T12:47:21;26.00;99.90
30678;DHT22;17437;47.188;8.896;2022-07-29T12:50:07;26.00;99.90
30678;DHT22;17437;47.188;8.896;2022-07-29T12:52:40;26.10;99.90
30678;DHT22;17437;47.188;8.896;2022-07-29T12:55:12;26.20;99.90
30678;DHT22;17437;47.188;8.896;2022-07-29T12:57:48;26.20;99.90
30678;DHT22;17437;47.188;8.896;2022-07-29T13:00:24;26.20;99.90
30678;DHT22;17437;47.188;8.896;2022-07-29T13:02:57;26.00;99.90
30678;DHT22;17437;47.188;8.896;2022-07-29T13:05:41;25.90;99.90
30678;DHT22;17437;47.188;8.896;2022-07-29T13:08:17;25.80;99.90
30678;DHT22;17437;47.188;8.896;2022-07-29T13:10:51;25.70;99.90
30678;DHT22;17437;47.188;8.896;2022-07-29T13:13:23;25.60;99.90
30678;DHT22;17437;47.188;8.896;2022-07-29T13:16:07;25.50;99.90
30678;DHT22;17437;47.188;8.896;2022-07-29T13:18:40;25.30;99.90
30678;DHT22;17437;47.188;8.896;2022-07-29T13:21:13;25.00;99.90
30678;DHT22;17437;47.188;8.896;2022-07-29T13:23:45;24.60;99.90
30678;DHT22;17437;47.188;8.896;2022-07-29T13:26:17;24.30;99.90
30678;DHT22;17437;47.188;8.896;2022-07-29T13:28:49;23.90;99.90
30678;DHT22;17437;47.188;8.896;2022-07-29T13:31:21;23.80;99.90
30678;DHT22;17437;47.188;8.896;2022-07-29T13:33:53;23.80;99.90
30678;DHT22;17437;47.188;8.896;2022-07-29T13:36:24;23.90;99.90
30678;DHT22;17437;47.188;8.896;2022-07-29T13:38:56;23.90;99.90
30678;DHT22;17437;47.188;8.896;2022-07-29T13:41:28;24.00;99.90
30678;DHT22;17437;47.188;8.896;2022-07-29T13:44:02;24.00;99.90
30678;DHT22;17437;47.188;8.896;2022-07-29T13:46:34;23.90;99.90
30678;DHT22;17437;47.188;8.896;2022-07-29T13:49:07;23.80;99.90
30678;DHT22;17437;47.188;8.896;2022-07-29T13:51:39;23.60;99.90
30678;DHT22;17437;47.188;8.896;2022-07-29T13:54:10;23.20;99.90
30678;DHT22;17437;47.188;8.896;2022-07-29T13:56:42;22.90;99.90
30678;DHT22;17437;47.188;8.896;2022-07-29T13:59:15;22.50;99.90
30678;DHT22;17437;47.188;8.896;2022-07-29T14:01:47;22.30;99.90
30678;DHT22;17437;47.188;8.896;2022-07-29T14:04:18;22.00;99.90
30678;DHT22;17437;47.188;8.896;2022-07-29T14:06:50;21.90;99.90
30678;DHT22;17437;47.188;8.896;2022-07-29T14:09:21;21.80;99.90
30678;DHT22;17437;47.188;8.896;2022-07-29T14:11:53;21.70;99.90
30678;DHT22;17437;47.188;8.896;2022-07-29T14:14:24;21.60;99.90
30678;DHT22;17437;47.188;8.896;2022-07-29T14:16:56;21.50;99.90
30678;DHT22;17437;47.188;8.896;2022-07-29T14:19:28;21.50;99.90
30678;DHT22;17437;47.188;8.896;2022-07-29T14:22:02;21.40;99.90
30678;DHT22;17437;47.188;8.896;2022-07-29T14:24:34;21.30;99.90
30678;DHT22;17437;47.188;8.896;2022-07-29T14:27:07;21.30;99.90
30678;DHT22;17437;47.188;8.896;2022-07-29T14:29:39;21.20;99.90
30678;DHT22;17437;47.188;8.896;2022-07-29T14:32:11;21.10;99.90
30678;DHT22;17437;47.188;8.896;2022-07-29T14:34:45;21.00;99.90
30678;DHT22;17437;47.188;8.896;2022-07-29T14:37:17;20.90;99.90
30678;DHT22;17437;47.188;8.896;2022-07-29T14:39:49;20.80;99.90
30678;DHT22;17437;47.188;8.896;2022-07-29T14:42:20;20.70;99.90
30678;DHT22;17437;47.188;8.896;2022-07-29T14:44:52;20.60;99.90
30678;DHT22;17437;47.188;8.896;2022-07-29T14:47:24;20.50;99.90
30678;DHT22;17437;47.188;8.896;2022-07-29T14:49:56;20.40;99.90
30678;DHT22;17437;47.188;8.896;2022-07-29T14:52:27;20.30;99.90
30678;DHT22;17437;47.188;8.896;2022-07-29T14:54:59;20.20;99.90
30678;DHT22;17437;47.188;8.896;2022-07-29T14:57:31;20.10;99.90
30678;DHT22;17437;47.188;8.896;2022-07-29T15:00:05;20.10;99.90
30678;DHT22;17437;47.188;8.896;2022-07-29T15:02:37;20.10;99.90
30678;DHT22;17437;47.188;8.896;2022-07-29T15:05:11;20.10;99.90
30678;DHT22;17437;47.188;8.896;2022-07-29T15:07:44;20.10;99.90
30678;DHT22;17437;47.188;8.896;2022-07-29T15:10:16;20.10;99.90
30678;DHT22;17437;47.188;8.896;2022-07-29T15:12:50;20.10;99.90
30678;DHT22;17437;47.188;8.896;2022-07-29T15:15:22;20.10;99.90
30678;DHT22;17437;47.188;8.896;2022-07-29T15:17:53;20.20;99.90
30678;DHT22;17437;47.188;8.896;2022-07-29T15:20:25;20.30;99.90
30678;DHT22;17437;47.188;8.896;2022-07-29T15:22:57;20.30;99.90
30678;DHT22;17437;47.188;8.896;2022-07-29T15:25:28;20.30;99.90
30678;DHT22;17437;47.188;8.896;2022-07-29T15:28:00;20.30;99.90
30678;DHT22;17437;47.188;8.896;2022-07-29T15:30:33;20.20;99.90
30678;DHT22;17437;47.188;8.896;2022-07-29T15:33:06;20.10;99.90
30678;DHT22;17437;47.188;8.896;2022-07-29T15:35:39;20.00;99.90
30678;DHT22;17437;47.188;8.896;2022-07-29T15:38:12;19.80;99.90
30678;DHT22;17437;47.188;8.896;2022-07-29T15:40:44;19.70;99.90
30678;DHT22;17437;47.188;8.896;2022-07-29T15:43:16;19.60;99.90
30678;DHT22;17437;47.188;8.896;2022-07-29T15:45:48;19.50;99.90
30678;DHT22;17437;47.188;8.896;2022-07-29T15:48:47;19.30;99.90
30678;DHT22;17437;47.188;8.896;2022-07-29T15:51:18;19.20;99.90
30678;DHT22;17437;47.188;8.896;2022-07-29T15:53:50;19.20;99.90
30678;DHT22;17437;47.188;8.896;2022-07-29T15:56:23;19.10;99.90
30678;DHT22;17437;47.188;8.896;2022-07-29T15:58:55;19.20;99.90
30678;DHT22;17437;47.188;8.896;2022-07-29T16:01:26;19.10;99.90
30678;DHT22;17437;47.188;8.896;2022-07-29T16:03:58;19.10;99.90
30678;DHT22;17437;47.188;8.896;2022-07-29T16:06:30;19.10;99.90
30678;DHT22;17437;47.188;8.896;2022-07-29T16:09:02;19.10;99.90
30678;DHT22;17437;47.188;8.896;2022-07-29T16:11:34;19.10;99.90
30678;DHT22;17437;47.188;8.896;2022-07-29T16:14:05;19.20;99.90